sensor_id;sensor_type;location;lat;lon;timestamp;P1;durP1;ratioP1;P2;durP2;ratioP2
80411;SDS011;69749;42.684;23.360;2024-01-16T00:01:20;15.10;;;8.95;;
80411;SDS011;69749;42.684;23.360;2024-01-16T00:03:46;16.02;;;9.15;;
80411;SDS011;69749;42.684;23.360;2024-01-16T00:06:11;17.35;;;8.73;;
80411;SDS011;69749;42.684;23.360;2024-01-16T00:08:37;17.33;;;8.43;;
80411;SDS011;69749;42.684;23.360;2024-01-16T00:11:03;14.38;;;8.35;;
80411;SDS011;69749;42.684;23.360;2024-01-16T00:13:28;18.77;;;9.45;;
80411;SDS011;69749;42.684;23.360;2024-01-16T00:15:54;17.10;;;9.07;;
80411;SDS011;69749;42.684;23.360;2024-01-16T00:18:21;16.27;;;9.00;;
80411;SDS011;69749;42.684;23.360;2024-01-16T00:20:47;19.15;;;9.30;;
80411;SDS011;69749;42.684;23.360;2024-01-16T00:23:13;16.10;;;9.07;;
80411;SDS011;69749;42.684;23.360;2024-01-16T00:25:41;15.35;;;8.82;;
80411;SDS011;69749;42.684;23.360;2024-01-16T00:28:07;19.20;;;9.80;;
80411;SDS011;69749;42.684;23.360;2024-01-16T00:30:32;18.83;;;9.60;;
80411;SDS011;69749;42.684;23.360;2024-01-16T00:32:58;18.60;;;9.13;;
80411;SDS011;69749;42.684;23.360;2024-01-16T00:35:24;15.52;;;9.02;;
80411;SDS011;69749;42.684;23.360;2024-01-16T00:37:50;18.25;;;9.70;;
80411;SDS011;69749;42.684;23.360;2024-01-16T00:40:15;19.83;;;9.52;;
80411;SDS011;69749;42.684;23.360;2024-01-16T00:42:41;19.13;;;9.95;;
80411;SDS011;69749;42.684;23.360;2024-01-16T00:45:06;22.05;;;11.50;;
80411;SDS011;69749;42.684;23.360;2024-01-16T00:47:32;17.75;;;9.73;;
80411;SDS011;69749;42.684;23.360;2024-01-16T00:49:58;21.60;;;11.85;;
80411;SDS011;69749;42.684;23.360;2024-01-16T00:52:26;21.75;;;10.43;;
80411;SDS011;69749;42.684;23.360;2024-01-16T00:54:52;19.00;;;10.77;;
80411;SDS011;69749;42.684;23.360;2024-01-16T00:57:17;17.88;;;10.25;;
80411;SDS011;69749;42.684;23.360;2024-01-16T00:59:45;17.30;;;9.77;;
80411;SDS011;69749;42.684;23.360;2024-01-16T01:02:13;17.73;;;10.13;;
80411;SDS011;69749;42.684;23.360;2024-01-16T01:04:39;19.73;;;10.55;;
80411;SDS011;69749;42.684;23.360;2024-01-16T01:07:06;17.50;;;9.95;;
80411;SDS011;69749;42.684;23.360;2024-01-16T01:09:33;19.00;;;10.35;;
80411;SDS011;69749;42.684;23.360;2024-01-16T01:11:59;19.42;;;10.80;;
80411;SDS011;69749;42.684;23.360;2024-01-16T01:14:24;18.27;;;10.40;;
80411;SDS011;69749;42.684;23.360;2024-01-16T01:16:51;18.90;;;10.48;;
80411;SDS011;69749;42.684;23.360;2024-01-16T01:19:17;15.13;;;9.73;;
80411;SDS011;69749;42.684;23.360;2024-01-16T01:21:43;18.48;;;10.40;;
80411;SDS011;69749;42.684;23.360;2024-01-16T01:24:08;18.42;;;10.82;;
80411;SDS011;69749;42.684;23.360;2024-01-16T01:26:34;16.73;;;10.43;;
80411;SDS011;69749;42.684;23.360;2024-01-16T01:29:00;15.30;;;9.40;;
80411;SDS011;69749;42.684;23.360;2024-01-16T01:31:26;17.30;;;9.18;;
80411;SDS011;69749;42.684;23.360;2024-01-16T01:33:51;17.55;;;9.00;;
80411;SDS011;69749;42.684;23.360;2024-01-16T01:36:17;16.65;;;9.63;;
80411;SDS011;69749;42.684;23.360;2024-01-16T01:38:42;17.15;;;9.07;;
80411;SDS011;69749;42.684;23.360;2024-01-16T01:41:08;16.00;;;9.15;;
80411;SDS011;69749;42.684;23.360;2024-01-16T01:43:33;15.88;;;9.02;;
80411;SDS011;69749;42.684;23.360;2024-01-16T01:46:09;15.75;;;9.57;;
80411;SDS011;69749;42.684;23.360;2024-01-16T01:48:37;17.20;;;8.73;;
80411;SDS011;69749;42.684;23.360;2024-01-16T01:51:03;14.00;;;9.00;;
80411;SDS011;69749;42.684;23.360;2024-01-16T01:53:30;15.10;;;9.23;;
80411;SDS011;69749;42.684;23.360;2024-01-16T01:55:58;16.67;;;9.07;;
80411;SDS011;69749;42.684;23.360;2024-01-16T01:58:25;16.75;;;8.75;;
80411;SDS011;69749;42.684;23.360;2024-01-16T02:00:51;14.15;;;8.55;;
80411;SDS011;69749;42.684;23.360;2024-01-16T02:03:16;14.30;;;8.57;;
80411;SDS011;69749;42.684;23.360;2024-01-16T02:05:43;13.45;;;8.25;;
80411;SDS011;69749;42.684;23.360;2024-01-16T02:08:09;13.60;;;8.27;;
80411;SDS011;69749;42.684;23.360;2024-01-16T02:10:36;15.38;;;8.10;;
80411;SDS011;69749;42.684;23.360;2024-01-16T02:13:03;15.27;;;8.77;;
80411;SDS011;69749;42.684;23.360;2024-01-16T02:15:29;15.27;;;9.15;;
80411;SDS011;69749;42.684;23.360;2024-01-16T02:17:54;14.02;;;8.45;;
80411;SDS011;69749;42.684;23.360;2024-01-16T02:20:22;13.05;;;8.43;;
80411;SDS011;69749;42.684;23.360;2024-01-16T02:22:47;16.50;;;9.00;;
80411;SDS011;69749;42.684;23.360;2024-01-16T02:25:14;14.48;;;8.48;;
80411;SDS011;69749;42.684;23.360;2024-01-16T02:27:40;15.88;;;9.13;;
80411;SDS011;69749;42.684;23.360;2024-01-16T02:30:06;14.98;;;9.30;;
80411;SDS011;69749;42.684;23.360;2024-01-16T02:32:31;14.00;;;8.52;;
80411;SDS011;69749;42.684;23.360;2024-01-16T02:34:57;11.45;;;7.03;;
80411;SDS011;69749;42.684;23.360;2024-01-16T02:37:23;13.63;;;8.40;;
80411;SDS011;69749;42.684;23.360;2024-01-16T02:39:49;13.48;;;8.68;;
80411;SDS011;69749;42.684;23.360;2024-01-16T02:42:14;12.50;;;7.72;;
80411;SDS011;69749;42.684;23.360;2024-01-16T02:44:40;12.45;;;7.70;;
80411;SDS011;69749;42.684;23.360;2024-01-16T02:47:06;18.83;;;8.95;;
80411;SDS011;69749;42.684;23.360;2024-01-16T02:49:32;13.93;;;8.30;;
80411;SDS011;69749;42.684;23.360;2024-01-16T02:51:58;13.88;;;8.63;;
80411;SDS011;69749;42.684;23.360;2024-01-16T02:54:24;13.35;;;7.90;;
80411;SDS011;69749;42.684;23.360;2024-01-16T02:56:49;14.57;;;9.10;;
80411;SDS011;69749;42.684;23.360;2024-01-16T02:59:15;15.95;;;8.75;;
80411;SDS011;69749;42.684;23.360;2024-01-16T03:01:41;15.75;;;8.80;;
80411;SDS011;69749;42.684;23.360;2024-01-16T03:04:07;13.68;;;8.68;;
80411;SDS011;69749;42.684;23.360;2024-01-16T03:06:32;15.70;;;8.95;;
80411;SDS011;69749;42.684;23.360;2024-01-16T03:08:57;17.38;;;9.65;;
80411;SDS011;69749;42.684;23.360;2024-01-16T03:11:23;17.55;;;9.55;;
80411;SDS011;69749;42.684;23.360;2024-01-16T03:13:49;14.52;;;8.95;;
80411;SDS011;69749;42.684;23.360;2024-01-16T03:18:43;13.98;;;8.50;;
80411;SDS011;69749;42.684;23.360;2024-01-16T03:21:08;13.23;;;7.68;;
80411;SDS011;69749;42.684;23.360;2024-01-16T03:23:35;11.23;;;6.32;;
80411;SDS011;69749;42.684;23.360;2024-01-16T03:26:01;7.38;;;4.35;;
80411;SDS011;69749;42.684;23.360;2024-01-16T03:28:26;6.68;;;4.25;;
80411;SDS011;69749;42.684;23.360;2024-01-16T03:30:52;6.72;;;4.43;;
80411;SDS011;69749;42.684;23.360;2024-01-16T03:33:17;7.28;;;3.55;;
80411;SDS011;69749;42.684;23.360;2024-01-16T03:35:43;7.35;;;4.07;;
80411;SDS011;69749;42.684;23.360;2024-01-16T03:38:08;5.45;;;3.65;;
80411;SDS011;69749;42.684;23.360;2024-01-16T03:40:34;5.50;;;3.42;;
80411;SDS011;69749;42.684;23.360;2024-01-16T03:43:02;5.60;;;4.03;;
80411;SDS011;69749;42.684;23.360;2024-01-16T03:45:30;5.53;;;3.78;;
80411;SDS011;69749;42.684;23.360;2024-01-16T03:47:55;5.30;;;3.92;;
80411;SDS011;69749;42.684;23.360;2024-01-16T03:50:21;5.32;;;3.85;;
80411;SDS011;69749;42.684;23.360;2024-01-16T03:52:46;4.07;;;3.47;;
80411;SDS011;69749;42.684;23.360;2024-01-16T03:55:12;4.53;;;3.60;;
80411;SDS011;69749;42.684;23.360;2024-01-16T03:57:37;4.28;;;3.30;;
80411;SDS011;69749;42.684;23.360;2024-01-16T04:00:03;5.38;;;3.50;;
80411;SDS011;69749;42.684;23.360;2024-01-16T04:02:30;4.75;;;3.30;;
80411;SDS011;69749;42.684;23.360;2024-01-16T04:04:56;3.38;;;2.80;;
80411;SDS011;69749;42.684;23.360;2024-01-16T04:07:24;4.72;;;2.80;;
80411;SDS011;69749;42.684;23.360;2024-01-16T04:09:51;4.35;;;2.78;;
80411;SDS011;69749;42.684;23.360;2024-01-16T04:12:17;3.95;;;2.97;;
80411;SDS011;69749;42.684;23.360;2024-01-16T04:14:42;4.05;;;2.85;;
80411;SDS011;69749;42.684;23.360;2024-01-16T04:17:08;2.78;;;2.50;;
80411;SDS011;69749;42.684;23.360;2024-01-16T04:19:33;2.35;;;2.15;;
80411;SDS011;69749;42.684;23.360;2024-01-16T04:21:59;3.08;;;2.75;;
80411;SDS011;69749;42.684;23.360;2024-01-16T04:24:26;3.03;;;2.72;;
80411;SDS011;69749;42.684;23.360;2024-01-16T04:26:52;3.05;;;2.30;;
80411;SDS011;69749;42.684;23.360;2024-01-16T04:29:18;2.92;;;2.72;;
80411;SDS011;69749;42.684;23.360;2024-01-16T04:31:43;3.08;;;2.60;;
80411;SDS011;69749;42.684;23.360;2024-01-16T04:34:09;2.47;;;2.28;;
80411;SDS011;69749;42.684;23.360;2024-01-16T04:36:34;2.33;;;2.00;;
80411;SDS011;69749;42.684;23.360;2024-01-16T04:39:00;2.58;;;2.03;;
80411;SDS011;69749;42.684;23.360;2024-01-16T04:41:25;2.28;;;1.95;;
80411;SDS011;69749;42.684;23.360;2024-01-16T04:43:51;1.92;;;1.80;;
80411;SDS011;69749;42.684;23.360;2024-01-16T04:46:16;2.30;;;2.10;;
80411;SDS011;69749;42.684;23.360;2024-01-16T04:48:42;2.28;;;2.08;;
80411;SDS011;69749;42.684;23.360;2024-01-16T04:51:08;2.67;;;2.00;;
80411;SDS011;69749;42.684;23.360;2024-01-16T04:53:33;2.58;;;2.20;;
80411;SDS011;69749;42.684;23.360;2024-01-16T04:55:59;2.15;;;1.92;;
80411;SDS011;69749;42.684;23.360;2024-01-16T04:58:25;2.40;;;2.20;;
80411;SDS011;69749;42.684;23.360;2024-01-16T05:00:50;3.35;;;2.50;;
80411;SDS011;69749;42.684;23.360;2024-01-16T05:03:15;2.35;;;2.15;;
80411;SDS011;69749;42.684;23.360;2024-01-16T05:05:41;2.03;;;1.83;;
80411;SDS011;69749;42.684;23.360;2024-01-16T05:08:07;1.98;;;1.88;;
80411;SDS011;69749;42.684;23.360;2024-01-16T05:10:32;2.53;;;2.33;;
80411;SDS011;69749;42.684;23.360;2024-01-16T05:12:58;2.22;;;2.00;;
80411;SDS011;69749;42.684;23.360;2024-01-16T05:15:24;2.85;;;2.03;;
80411;SDS011;69749;42.684;23.360;2024-01-16T05:17:50;2.10;;;1.90;;
80411;SDS011;69749;42.684;23.360;2024-01-16T05:20:15;2.17;;;1.85;;
80411;SDS011;69749;42.684;23.360;2024-01-16T05:22:41;1.95;;;1.75;;
80411;SDS011;69749;42.684;23.360;2024-01-16T05:25:06;2.10;;;2.00;;
80411;SDS011;69749;42.684;23.360;2024-01-16T05:27:32;2.20;;;2.00;;
80411;SDS011;69749;42.684;23.360;2024-01-16T05:29:58;2.65;;;2.30;;
80411;SDS011;69749;42.684;23.360;2024-01-16T05:32:24;2.33;;;2.08;;
80411;SDS011;69749;42.684;23.360;2024-01-16T05:34:50;3.03;;;2.03;;
80411;SDS011;69749;42.684;23.360;2024-01-16T05:37:15;2.63;;;2.15;;
80411;SDS011;69749;42.684;23.360;2024-01-16T05:39:41;2.17;;;2.00;;
80411;SDS011;69749;42.684;23.360;2024-01-16T05:42:06;2.97;;;2.28;;
80411;SDS011;69749;42.684;23.360;2024-01-16T05:44:32;1.90;;;1.80;;
80411;SDS011;69749;42.684;23.360;2024-01-16T05:46:58;2.40;;;2.00;;
80411;SDS011;69749;42.684;23.360;2024-01-16T05:49:23;2.10;;;2.00;;
80411;SDS011;69749;42.684;23.360;2024-01-16T05:51:49;2.17;;;1.98;;
80411;SDS011;69749;42.684;23.360;2024-01-16T05:54:14;2.65;;;1.83;;
80411;SDS011;69749;42.684;23.360;2024-01-16T05:56:40;2.10;;;1.90;;
80411;SDS011;69749;42.684;23.360;2024-01-16T05:59:05;2.30;;;1.70;;
80411;SDS011;69749;42.684;23.360;2024-01-16T06:01:32;2.28;;;1.83;;
80411;SDS011;69749;42.684;23.360;2024-01-16T06:03:57;2.33;;;1.95;;
80411;SDS011;69749;42.684;23.360;2024-01-16T06:06:23;2.38;;;1.92;;
80411;SDS011;69749;42.684;23.360;2024-01-16T06:08:49;3.88;;;2.67;;
80411;SDS011;69749;42.684;23.360;2024-01-16T06:11:14;3.20;;;2.40;;
80411;SDS011;69749;42.684;23.360;2024-01-16T06:13:40;2.78;;;2.20;;
80411;SDS011;69749;42.684;23.360;2024-01-16T06:16:06;2.90;;;2.15;;
80411;SDS011;69749;42.684;23.360;2024-01-16T06:18:33;2.30;;;2.05;;
80411;SDS011;69749;42.684;23.360;2024-01-16T06:21:00;2.40;;;2.00;;
80411;SDS011;69749;42.684;23.360;2024-01-16T06:23:25;2.90;;;2.00;;
80411;SDS011;69749;42.684;23.360;2024-01-16T06:25:51;3.20;;;2.20;;
80411;SDS011;69749;42.684;23.360;2024-01-16T06:28:16;2.13;;;1.83;;
80411;SDS011;69749;42.684;23.360;2024-01-16T06:30:42;3.10;;;2.03;;
80411;SDS011;69749;42.684;23.360;2024-01-16T06:33:07;3.38;;;2.30;;
80411;SDS011;69749;42.684;23.360;2024-01-16T06:35:33;2.30;;;1.70;;
80411;SDS011;69749;42.684;23.360;2024-01-16T06:37:58;3.30;;;2.10;;
80411;SDS011;69749;42.684;23.360;2024-01-16T06:40:24;2.38;;;1.90;;
80411;SDS011;69749;42.684;23.360;2024-01-16T06:42:49;1.70;;;1.60;;
80411;SDS011;69749;42.684;23.360;2024-01-16T06:45:15;2.58;;;1.60;;
80411;SDS011;69749;42.684;23.360;2024-01-16T06:47:41;2.13;;;1.75;;
80411;SDS011;69749;42.684;23.360;2024-01-16T06:50:07;2.63;;;2.00;;
80411;SDS011;69749;42.684;23.360;2024-01-16T06:52:33;2.13;;;1.73;;
80411;SDS011;69749;42.684;23.360;2024-01-16T06:54:59;2.03;;;1.73;;
80411;SDS011;69749;42.684;23.360;2024-01-16T06:57:24;2.22;;;2.03;;
80411;SDS011;69749;42.684;23.360;2024-01-16T06:59:50;2.47;;;1.70;;
80411;SDS011;69749;42.684;23.360;2024-01-16T07:02:15;2.47;;;1.90;;
80411;SDS011;69749;42.684;23.360;2024-01-16T07:04:41;1.92;;;1.70;;
80411;SDS011;69749;42.684;23.360;2024-01-16T07:07:06;2.53;;;2.03;;
80411;SDS011;69749;42.684;23.360;2024-01-16T07:09:32;2.10;;;1.90;;
80411;SDS011;69749;42.684;23.360;2024-01-16T07:11:58;2.40;;;2.20;;
80411;SDS011;69749;42.684;23.360;2024-01-16T07:14:23;3.08;;;2.00;;
80411;SDS011;69749;42.684;23.360;2024-01-16T07:16:49;2.33;;;2.13;;
80411;SDS011;69749;42.684;23.360;2024-01-16T07:19:15;2.58;;;2.20;;
80411;SDS011;69749;42.684;23.360;2024-01-16T07:21:40;4.60;;;2.22;;
80411;SDS011;69749;42.684;23.360;2024-01-16T07:24:06;2.47;;;1.88;;
80411;SDS011;69749;42.684;23.360;2024-01-16T07:26:31;2.78;;;1.90;;
80411;SDS011;69749;42.684;23.360;2024-01-16T07:28:57;2.35;;;2.15;;
80411;SDS011;69749;42.684;23.360;2024-01-16T07:31:23;2.22;;;2.03;;
80411;SDS011;69749;42.684;23.360;2024-01-16T07:33:48;2.92;;;2.20;;
80411;SDS011;69749;42.684;23.360;2024-01-16T07:36:14;2.08;;;1.88;;
80411;SDS011;69749;42.684;23.360;2024-01-16T07:38:39;2.25;;;2.03;;
80411;SDS011;69749;42.684;23.360;2024-01-16T07:41:05;2.50;;;2.30;;
80411;SDS011;69749;42.684;23.360;2024-01-16T07:43:31;1.98;;;1.88;;
80411;SDS011;69749;42.684;23.360;2024-01-16T07:45:57;2.88;;;2.10;;
80411;SDS011;69749;42.684;23.360;2024-01-16T07:48:23;2.13;;;1.92;;
80411;SDS011;69749;42.684;23.360;2024-01-16T07:50:48;3.05;;;2.60;;
80411;SDS011;69749;42.684;23.360;2024-01-16T07:53:14;4.32;;;2.20;;
80411;SDS011;69749;42.684;23.360;2024-01-16T07:55:43;1.88;;;1.77;;
80411;SDS011;69749;42.684;23.360;2024-01-16T07:58:11;3.05;;;2.13;;
80411;SDS011;69749;42.684;23.360;2024-01-16T08:00:37;2.28;;;2.05;;
80411;SDS011;69749;42.684;23.360;2024-01-16T08:03:03;3.47;;;3.10;;
80411;SDS011;69749;42.684;23.360;2024-01-16T08:05:29;3.67;;;2.72;;
80411;SDS011;69749;42.684;23.360;2024-01-16T08:07:56;4.15;;;2.60;;
80411;SDS011;69749;42.684;23.360;2024-01-16T08:10:22;2.47;;;2.05;;
80411;SDS011;69749;42.684;23.360;2024-01-16T08:12:48;3.22;;;2.45;;
80411;SDS011;69749;42.684;23.360;2024-01-16T08:15:13;3.35;;;2.33;;
80411;SDS011;69749;42.684;23.360;2024-01-16T08:17:40;2.40;;;2.20;;
80411;SDS011;69749;42.684;23.360;2024-01-16T08:20:06;1.83;;;1.60;;
80411;SDS011;69749;42.684;23.360;2024-01-16T08:22:35;3.65;;;2.45;;
80411;SDS011;69749;42.684;23.360;2024-01-16T08:25:01;4.22;;;2.67;;
80411;SDS011;69749;42.684;23.360;2024-01-16T08:27:29;3.58;;;2.58;;
80411;SDS011;69749;42.684;23.360;2024-01-16T08:29:55;3.47;;;2.83;;
80411;SDS011;69749;42.684;23.360;2024-01-16T08:32:21;5.68;;;2.53;;
80411;SDS011;69749;42.684;23.360;2024-01-16T08:34:46;3.15;;;2.30;;
80411;SDS011;69749;42.684;23.360;2024-01-16T08:37:12;4.13;;;2.90;;
80411;SDS011;69749;42.684;23.360;2024-01-16T08:39:37;2.40;;;2.20;;
80411;SDS011;69749;42.684;23.360;2024-01-16T08:42:03;3.08;;;2.40;;
80411;SDS011;69749;42.684;23.360;2024-01-16T08:44:29;2.67;;;2.30;;
80411;SDS011;69749;42.684;23.360;2024-01-16T08:46:54;3.08;;;2.17;;
80411;SDS011;69749;42.684;23.360;2024-01-16T08:49:20;4.75;;;3.00;;
80411;SDS011;69749;42.684;23.360;2024-01-16T08:51:46;4.88;;;2.20;;
80411;SDS011;69749;42.684;23.360;2024-01-16T08:54:12;3.75;;;2.30;;
80411;SDS011;69749;42.684;23.360;2024-01-16T08:56:37;5.78;;;2.35;;
80411;SDS011;69749;42.684;23.360;2024-01-16T08:59:03;4.60;;;2.30;;
80411;SDS011;69749;42.684;23.360;2024-01-16T09:01:28;3.50;;;2.63;;
80411;SDS011;69749;42.684;23.360;2024-01-16T09:03:53;4.20;;;2.28;;
80411;SDS011;69749;42.684;23.360;2024-01-16T09:06:19;3.45;;;2.45;;
80411;SDS011;69749;42.684;23.360;2024-01-16T09:08:44;2.38;;;2.10;;
80411;SDS011;69749;42.684;23.360;2024-01-16T09:11:10;2.60;;;2.20;;
80411;SDS011;69749;42.684;23.360;2024-01-16T09:13:36;2.90;;;2.63;;
80411;SDS011;69749;42.684;23.360;2024-01-16T09:16:05;2.03;;;1.83;;
80411;SDS011;69749;42.684;23.360;2024-01-16T09:18:30;4.22;;;2.45;;
80411;SDS011;69749;42.684;23.360;2024-01-16T09:20:56;5.88;;;2.60;;
80411;SDS011;69749;42.684;23.360;2024-01-16T09:23:22;4.03;;;2.40;;
80411;SDS011;69749;42.684;23.360;2024-01-16T09:25:47;3.55;;;2.13;;
80411;SDS011;69749;42.684;23.360;2024-01-16T09:28:13;5.75;;;2.97;;
80411;SDS011;69749;42.684;23.360;2024-01-16T09:30:39;5.22;;;2.90;;
80411;SDS011;69749;42.684;23.360;2024-01-16T09:33:06;4.55;;;2.42;;
80411;SDS011;69749;42.684;23.360;2024-01-16T09:35:32;3.90;;;2.67;;
80411;SDS011;69749;42.684;23.360;2024-01-16T09:37:58;3.38;;;2.92;;
80411;SDS011;69749;42.684;23.360;2024-01-16T09:40:24;4.15;;;2.60;;
80411;SDS011;69749;42.684;23.360;2024-01-16T09:42:51;3.53;;;2.38;;
80411;SDS011;69749;42.684;23.360;2024-01-16T09:45:18;4.93;;;2.78;;
80411;SDS011;69749;42.684;23.360;2024-01-16T09:47:46;2.90;;;2.10;;
80411;SDS011;69749;42.684;23.360;2024-01-16T09:50:14;3.30;;;2.30;;
80411;SDS011;69749;42.684;23.360;2024-01-16T09:52:42;3.10;;;2.20;;
80411;SDS011;69749;42.684;23.360;2024-01-16T09:55:08;3.58;;;2.53;;
80411;SDS011;69749;42.684;23.360;2024-01-16T09:57:34;3.75;;;2.58;;
80411;SDS011;69749;42.684;23.360;2024-01-16T10:00:05;2.40;;;2.00;;
80411;SDS011;69749;42.684;23.360;2024-01-16T10:02:37;2.80;;;2.22;;
80411;SDS011;69749;42.684;23.360;2024-01-16T10:05:05;4.15;;;2.42;;
80411;SDS011;69749;42.684;23.360;2024-01-16T10:07:30;2.88;;;2.22;;
80411;SDS011;69749;42.684;23.360;2024-01-16T10:09:58;5.40;;;2.40;;
80411;SDS011;69749;42.684;23.360;2024-01-16T10:12:24;2.28;;;2.08;;
80411;SDS011;69749;42.684;23.360;2024-01-16T10:14:50;5.35;;;1.92;;
80411;SDS011;69749;42.684;23.360;2024-01-16T10:17:19;2.80;;;2.20;;
80411;SDS011;69749;42.684;23.360;2024-01-16T10:19:51;3.10;;;2.10;;
80411;SDS011;69749;42.684;23.360;2024-01-16T10:22:23;3.47;;;2.20;;
80411;SDS011;69749;42.684;23.360;2024-01-16T10:25:05;3.25;;;2.10;;
80411;SDS011;69749;42.684;23.360;2024-01-16T10:27:36;3.63;;;1.85;;
80411;SDS011;69749;42.684;23.360;2024-01-16T10:30:03;3.28;;;2.20;;
80411;SDS011;69749;42.684;23.360;2024-01-16T10:32:30;4.20;;;2.17;;
80411;SDS011;69749;42.684;23.360;2024-01-16T10:35:07;6.15;;;2.42;;
80411;SDS011;69749;42.684;23.360;2024-01-16T10:37:46;4.20;;;2.58;;
80411;SDS011;69749;42.684;23.360;2024-01-16T10:40:16;4.75;;;2.25;;
80411;SDS011;69749;42.684;23.360;2024-01-16T10:42:43;3.78;;;2.53;;
80411;SDS011;69749;42.684;23.360;2024-01-16T10:45:21;4.55;;;2.03;;
80411;SDS011;69749;42.684;23.360;2024-01-16T10:47:47;3.88;;;2.22;;
80411;SDS011;69749;42.684;23.360;2024-01-16T10:50:14;5.32;;;2.55;;
80411;SDS011;69749;42.684;23.360;2024-01-16T10:52:44;2.10;;;1.90;;
80411;SDS011;69749;42.684;23.360;2024-01-16T10:55:16;3.47;;;2.15;;
80411;SDS011;69749;42.684;23.360;2024-01-16T10:57:50;4.20;;;2.40;;
80411;SDS011;69749;42.684;23.360;2024-01-16T11:00:20;3.58;;;2.40;;
80411;SDS011;69749;42.684;23.360;2024-01-16T11:03:05;4.70;;;2.50;;
80411;SDS011;69749;42.684;23.360;2024-01-16T11:05:34;3.75;;;2.47;;
80411;SDS011;69749;42.684;23.360;2024-01-16T11:08:02;5.13;;;2.45;;
80411;SDS011;69749;42.684;23.360;2024-01-16T11:10:31;2.85;;;1.95;;
80411;SDS011;69749;42.684;23.360;2024-01-16T11:13:01;3.38;;;2.50;;
80411;SDS011;69749;42.684;23.360;2024-01-16T11:15:28;3.50;;;2.30;;
80411;SDS011;69749;42.684;23.360;2024-01-16T11:17:57;5.22;;;3.08;;
80411;SDS011;69749;42.684;23.360;2024-01-16T11:20:24;3.15;;;2.50;;
80411;SDS011;69749;42.684;23.360;2024-01-16T11:22:50;2.85;;;2.22;;
80411;SDS011;69749;42.684;23.360;2024-01-16T11:25:22;3.47;;;2.35;;
80411;SDS011;69749;42.684;23.360;2024-01-16T11:28:14;5.53;;;3.00;;
80411;SDS011;69749;42.684;23.360;2024-01-16T11:30:41;3.33;;;2.63;;
80411;SDS011;69749;42.684;23.360;2024-01-16T11:35:56;4.30;;;2.70;;
80411;SDS011;69749;42.684;23.360;2024-01-16T11:38:21;4.30;;;2.47;;
80411;SDS011;69749;42.684;23.360;2024-01-16T11:40:47;4.07;;;2.75;;
80411;SDS011;69749;42.684;23.360;2024-01-16T11:46:00;6.55;;;2.80;;
80411;SDS011;69749;42.684;23.360;2024-01-16T11:48:27;4.40;;;2.55;;
80411;SDS011;69749;42.684;23.360;2024-01-16T11:50:53;3.83;;;2.40;;
80411;SDS011;69749;42.684;23.360;2024-01-16T11:53:36;4.22;;;2.58;;
80411;SDS011;69749;42.684;23.360;2024-01-16T11:56:11;3.85;;;2.65;;
80411;SDS011;69749;42.684;23.360;2024-01-16T11:59:16;3.00;;;1.92;;
80411;SDS011;69749;42.684;23.360;2024-01-16T12:01:47;5.15;;;2.97;;
80411;SDS011;69749;42.684;23.360;2024-01-16T12:04:16;3.20;;;2.20;;
80411;SDS011;69749;42.684;23.360;2024-01-16T12:06:43;4.15;;;2.97;;
80411;SDS011;69749;42.684;23.360;2024-01-16T12:11:38;3.60;;;2.63;;
80411;SDS011;69749;42.684;23.360;2024-01-16T12:14:03;4.53;;;3.13;;
80411;SDS011;69749;42.684;23.360;2024-01-16T12:16:29;3.53;;;2.40;;
80411;SDS011;69749;42.684;23.360;2024-01-16T12:19:07;3.83;;;2.78;;
80411;SDS011;69749;42.684;23.360;2024-01-16T12:21:43;3.35;;;2.38;;
80411;SDS011;69749;42.684;23.360;2024-01-16T12:24:10;3.80;;;2.33;;
80411;SDS011;69749;42.684;23.360;2024-01-16T12:26:36;4.13;;;2.65;;
80411;SDS011;69749;42.684;23.360;2024-01-16T12:29:02;4.28;;;2.92;;
80411;SDS011;69749;42.684;23.360;2024-01-16T12:31:28;4.18;;;2.30;;
80411;SDS011;69749;42.684;23.360;2024-01-16T12:34:07;6.05;;;2.50;;
80411;SDS011;69749;42.684;23.360;2024-01-16T12:36:33;7.13;;;4.22;;
80411;SDS011;69749;42.684;23.360;2024-01-16T12:38:59;3.78;;;2.40;;
80411;SDS011;69749;42.684;23.360;2024-01-16T12:41:25;2.40;;;2.20;;
80411;SDS011;69749;42.684;23.360;2024-01-16T12:43:53;2.85;;;2.35;;
80411;SDS011;69749;42.684;23.360;2024-01-16T12:46:19;3.95;;;2.20;;
80411;SDS011;69749;42.684;23.360;2024-01-16T12:48:44;3.88;;;2.60;;
80411;SDS011;69749;42.684;23.360;2024-01-16T12:51:12;2.95;;;2.60;;
80411;SDS011;69749;42.684;23.360;2024-01-16T12:53:45;2.92;;;2.08;;
80411;SDS011;69749;42.684;23.360;2024-01-16T12:56:11;6.97;;;2.85;;
80411;SDS011;69749;42.684;23.360;2024-01-16T12:58:37;2.97;;;2.20;;
80411;SDS011;69749;42.684;23.360;2024-01-16T13:03:46;3.80;;;2.70;;
80411;SDS011;69749;42.684;23.360;2024-01-16T13:06:16;2.85;;;1.80;;
80411;SDS011;69749;42.684;23.360;2024-01-16T13:08:42;5.95;;;2.10;;
80411;SDS011;69749;42.684;23.360;2024-01-16T13:11:08;4.45;;;2.67;;
80411;SDS011;69749;42.684;23.360;2024-01-16T13:13:37;3.05;;;2.50;;
80411;SDS011;69749;42.684;23.360;2024-01-16T13:16:03;2.80;;;2.60;;
80411;SDS011;69749;42.684;23.360;2024-01-16T13:18:32;4.93;;;3.28;;
80411;SDS011;69749;42.684;23.360;2024-01-16T13:20:59;5.40;;;3.38;;
80411;SDS011;69749;42.684;23.360;2024-01-16T13:23:25;5.30;;;2.80;;
80411;SDS011;69749;42.684;23.360;2024-01-16T13:25:52;2.95;;;2.33;;
80411;SDS011;69749;42.684;23.360;2024-01-16T13:28:20;3.80;;;3.10;;
80411;SDS011;69749;42.684;23.360;2024-01-16T13:30:46;3.40;;;2.55;;
80411;SDS011;69749;42.684;23.360;2024-01-16T13:33:13;5.53;;;2.70;;
80411;SDS011;69749;42.684;23.360;2024-01-16T13:35:43;3.83;;;2.80;;
80411;SDS011;69749;42.684;23.360;2024-01-16T13:38:11;2.80;;;2.55;;
80411;SDS011;69749;42.684;23.360;2024-01-16T13:40:38;8.52;;;2.70;;
80411;SDS011;69749;42.684;23.360;2024-01-16T13:43:04;4.90;;;2.90;;
80411;SDS011;69749;42.684;23.360;2024-01-16T13:45:31;3.83;;;2.70;;
80411;SDS011;69749;42.684;23.360;2024-01-16T13:47:58;4.60;;;2.67;;
80411;SDS011;69749;42.684;23.360;2024-01-16T13:50:23;3.58;;;2.47;;
80411;SDS011;69749;42.684;23.360;2024-01-16T13:52:49;4.90;;;2.83;;
80411;SDS011;69749;42.684;23.360;2024-01-16T13:55:15;4.20;;;3.53;;
80411;SDS011;69749;42.684;23.360;2024-01-16T13:57:41;4.78;;;3.28;;
80411;SDS011;69749;42.684;23.360;2024-01-16T14:00:07;5.53;;;3.15;;
80411;SDS011;69749;42.684;23.360;2024-01-16T14:05:07;5.95;;;3.03;;
80411;SDS011;69749;42.684;23.360;2024-01-16T14:07:36;3.42;;;2.47;;
80411;SDS011;69749;42.684;23.360;2024-01-16T14:10:08;3.15;;;2.63;;
80411;SDS011;69749;42.684;23.360;2024-01-16T14:12:40;3.00;;;2.40;;
80411;SDS011;69749;42.684;23.360;2024-01-16T14:15:09;5.32;;;2.65;;
80411;SDS011;69749;42.684;23.360;2024-01-16T14:17:53;4.03;;;2.30;;
80411;SDS011;69749;42.684;23.360;2024-01-16T14:20:20;3.83;;;2.65;;
80411;SDS011;69749;42.684;23.360;2024-01-16T14:22:54;3.90;;;2.53;;
80411;SDS011;69749;42.684;23.360;2024-01-16T14:25:20;4.10;;;2.95;;
80411;SDS011;69749;42.684;23.360;2024-01-16T14:27:56;4.57;;;3.17;;
80411;SDS011;69749;42.684;23.360;2024-01-16T14:30:28;3.33;;;2.95;;
80411;SDS011;69749;42.684;23.360;2024-01-16T14:32:55;4.47;;;2.80;;
80411;SDS011;69749;42.684;23.360;2024-01-16T14:35:21;4.15;;;3.10;;
80411;SDS011;69749;42.684;23.360;2024-01-16T14:37:47;3.28;;;2.60;;
80411;SDS011;69749;42.684;23.360;2024-01-16T14:40:12;3.13;;;2.45;;
80411;SDS011;69749;42.684;23.360;2024-01-16T14:42:44;3.10;;;2.80;;
80411;SDS011;69749;42.684;23.360;2024-01-16T14:45:13;2.97;;;2.63;;